createdAt,value
2023-04-26T00:00:15.484Z,540.00
2023-04-26T00:01:15.526Z,541.00
2023-04-26T00:02:15.609Z,542.00
2023-04-26T00:03:15.614Z,543.00
2023-04-26T00:04:15.680Z,545.00
2023-04-26T00:05:15.738Z,546.00
2023-04-26T00:06:15.653Z,543.00
2023-04-26T00:07:15.660Z,541.00
2023-04-26T00:08:15.684Z,542.00
2023-04-26T00:09:15.710Z,542.00
2023-04-26T00:10:15.753Z,544.00
2023-04-26T00:11:15.823Z,546.00
2023-04-26T00:12:15.796Z,545.00
2023-04-26T00:13:15.878Z,544.00
2023-04-26T00:14:15.905Z,545.00
2023-04-26T00:15:15.933Z,544.00
2023-04-26T00:16:15.984Z,542.00
2023-04-26T00:17:15.972Z,541.00
2023-04-26T00:18:16.052Z,540.00
2023-04-26T00:19:16.060Z,542.00
2023-04-26T00:20:16.066Z,545.00
2023-04-26T00:21:16.138Z,545.00
2023-04-26T00:22:16.158Z,545.00
2023-04-26T00:23:16.163Z,544.00
2023-04-26T00:24:16.243Z,545.00
2023-04-26T00:25:16.235Z,545.00
2023-04-26T00:26:16.311Z,547.00
2023-04-26T00:27:16.302Z,545.00
2023-04-26T00:28:16.350Z,545.00
2023-04-26T00:29:16.425Z,546.00
2023-04-26T00:30:16.397Z,544.00
2023-04-26T00:31:16.497Z,545.00
2023-04-26T00:32:16.442Z,546.00
2023-04-26T00:33:16.565Z,546.00
2023-04-26T00:34:16.566Z,545.00
2023-04-26T00:35:16.603Z,547.00
2023-04-26T00:36:16.641Z,550.00
2023-04-26T00:37:16.642Z,549.00
2023-04-26T00:38:16.811Z,551.00
2023-04-26T00:39:16.733Z,552.00
2023-04-26T00:40:16.748Z,552.00
2023-04-26T00:41:16.880Z,552.00
2023-04-26T00:42:16.805Z,550.00
2023-04-26T00:43:16.927Z,547.00
2023-04-26T00:44:16.884Z,546.00
2023-04-26T00:45:16.965Z,546.00
2023-04-26T00:46:17.117Z,549.00
2023-04-26T00:47:16.967Z,546.00
2023-04-26T00:48:16.989Z,546.00
2023-04-26T00:49:17.077Z,545.00
2023-04-26T00:50:17.090Z,546.00
2023-04-26T00:51:17.140Z,548.00
2023-04-26T00:52:17.140Z,549.00
2023-04-26T00:53:17.170Z,548.00
2023-04-26T00:54:17.213Z,548.00
2023-04-26T00:55:17.225Z,545.00
2023-04-26T00:56:17.234Z,547.00
2023-04-26T00:57:17.300Z,547.00
2023-04-26T00:58:17.353Z,547.00
2023-04-26T00:59:17.352Z,545.00
2023-04-26T01:00:17.412Z,547.00
2023-04-26T01:01:17.451Z,546.00
2023-04-26T01:02:17.593Z,545.00
2023-04-26T01:03:17.606Z,542.00
2023-04-26T01:04:17.866Z,543.00
2023-04-26T01:05:17.569Z,544.00
2023-04-26T01:06:17.604Z,545.00
2023-04-26T01:07:17.614Z,548.00
2023-04-26T01:08:17.694Z,549.00
2023-04-26T01:09:17.715Z,547.00
2023-04-26T01:10:17.731Z,545.00
2023-04-26T01:11:17.777Z,544.00
2023-04-26T01:12:17.791Z,543.00
2023-04-26T01:13:17.824Z,542.00
2023-04-26T01:14:17.863Z,544.00
2023-04-26T01:15:17.915Z,544.00
2023-04-26T01:16:18.004Z,545.00
2023-04-26T01:17:18.031Z,543.00
2023-04-26T01:18:18.061Z,544.00
2023-04-26T01:19:18.031Z,543.00
2023-04-26T01:20:18.109Z,541.00
2023-04-26T01:21:18.125Z,541.00
2023-04-26T01:22:18.174Z,541.00
2023-04-26T01:23:18.195Z,543.00
2023-04-26T01:24:18.266Z,544.00
2023-04-26T01:25:18.279Z,542.00
2023-04-26T01:26:18.310Z,539.00
2023-04-26T01:27:18.367Z,540.00
2023-04-26T01:28:18.368Z,541.00
2023-04-26T01:29:18.461Z,543.00
2023-04-26T01:30:18.469Z,543.00
2023-04-26T01:31:18.589Z,542.00
2023-04-26T01:32:18.533Z,543.00
2023-04-26T01:33:18.577Z,540.00
2023-04-26T01:34:18.607Z,542.00
2023-04-26T01:35:18.662Z,539.00
2023-04-26T01:36:18.689Z,538.00
2023-04-26T01:37:18.748Z,538.00
2023-04-26T01:38:18.745Z,537.00
2023-04-26T01:39:18.813Z,536.00
2023-04-26T01:40:18.837Z,538.00
2023-04-26T01:41:18.861Z,537.00
2023-04-26T01:42:18.911Z,535.00
2023-04-26T01:43:18.945Z,535.00
2023-04-26T01:44:18.996Z,538.00
2023-04-26T01:45:19.029Z,536.00
2023-04-26T01:46:19.142Z,534.00
2023-04-26T01:47:19.115Z,532.00
2023-04-26T01:48:19.186Z,532.00
2023-04-26T01:49:19.211Z,534.00
2023-04-26T01:50:19.245Z,533.00
2023-04-26T01:51:19.243Z,535.00
2023-04-26T01:52:19.264Z,538.00
2023-04-26T01:53:19.276Z,540.00
2023-04-26T01:54:19.296Z,539.00
2023-04-26T01:55:19.384Z,541.00
2023-04-26T01:56:19.384Z,539.00
2023-04-26T01:57:19.411Z,540.00
2023-04-26T01:58:19.456Z,539.00
2023-04-26T01:59:19.515Z,537.00
2023-04-26T02:00:19.503Z,537.00
2023-04-26T02:01:19.616Z,537.00
2023-04-26T02:02:19.656Z,538.00
2023-04-26T02:03:19.698Z,536.00
2023-04-26T02:04:19.656Z,537.00
2023-04-26T02:05:19.894Z,540.00
2023-04-26T02:06:19.780Z,541.00
2023-04-26T02:07:19.822Z,542.00
2023-04-26T02:08:19.846Z,544.00
2023-04-26T02:09:19.885Z,542.00
2023-04-26T02:10:19.927Z,540.00
2023-04-26T02:11:19.975Z,543.00
2023-04-26T02:12:19.997Z,544.00
2023-04-26T02:13:20.027Z,545.00
2023-04-26T02:14:20.063Z,543.00
2023-04-26T02:15:20.061Z,545.00
2023-04-26T02:16:20.223Z,544.00
2023-04-26T02:17:20.203Z,542.00
2023-04-26T02:18:20.211Z,541.00
2023-04-26T02:19:20.227Z,538.00
2023-04-26T02:20:20.309Z,539.00
2023-04-26T02:21:20.357Z,538.00
2023-04-26T02:22:20.385Z,540.00
2023-04-26T02:23:20.440Z,540.00
2023-04-26T02:24:20.491Z,542.00
2023-04-26T02:25:20.535Z,541.00
2023-04-26T02:26:20.578Z,541.00
2023-04-26T02:27:20.612Z,541.00
2023-04-26T02:28:20.676Z,540.00
2023-04-26T02:29:29.445Z,539.00
2023-04-26T02:30:21.696Z,537.00
2023-04-26T02:31:22.886Z,536.00
2023-04-26T02:32:20.838Z,538.00
2023-04-26T02:33:20.794Z,538.00
2023-04-26T02:34:20.835Z,536.00
2023-04-26T02:35:20.857Z,534.00
2023-04-26T02:36:20.993Z,534.00
2023-04-26T02:37:20.964Z,533.00
2023-04-26T02:38:21.019Z,532.00
2023-04-26T02:39:21.031Z,533.00
2023-04-26T02:40:21.080Z,534.00
2023-04-26T02:41:21.137Z,533.00
2023-04-26T02:42:21.199Z,535.00
2023-04-26T02:43:21.278Z,533.00
2023-04-26T02:44:21.276Z,533.00
2023-04-26T02:45:21.355Z,534.00
2023-04-26T02:46:21.428Z,535.00
2023-04-26T02:47:21.433Z,537.00
2023-04-26T02:48:21.440Z,538.00
2023-04-26T02:49:21.486Z,539.00
2023-04-26T02:50:21.531Z,539.00
2023-04-26T02:51:21.616Z,539.00
2023-04-26T02:52:21.606Z,536.00
2023-04-26T02:53:21.697Z,535.00
2023-04-26T02:54:21.706Z,539.00
2023-04-26T02:55:21.749Z,539.00
2023-04-26T02:56:22.332Z,537.00
2023-04-26T02:57:21.853Z,535.00
2023-04-26T02:58:21.881Z,535.00
2023-04-26T02:59:21.942Z,537.00
2023-04-26T03:00:21.979Z,537.00
2023-04-26T03:01:22.076Z,536.00
2023-04-26T03:02:22.174Z,534.00
2023-04-26T03:03:22.154Z,534.00
2023-04-26T03:04:22.192Z,534.00
2023-04-26T03:05:22.190Z,534.00
2023-04-26T03:06:22.209Z,534.00
2023-04-26T03:07:22.277Z,532.00
2023-04-26T03:08:22.328Z,533.00
2023-04-26T03:09:22.356Z,534.00
2023-04-26T03:10:22.859Z,534.00
2023-04-26T03:11:22.444Z,534.00
2023-04-26T03:12:22.529Z,533.00
2023-04-26T03:13:22.533Z,533.00
2023-04-26T03:14:22.590Z,535.00
2023-04-26T03:15:22.645Z,534.00
2023-04-26T03:16:22.700Z,535.00
2023-04-26T03:17:22.758Z,534.00
2023-04-26T03:18:22.789Z,536.00
2023-04-26T03:19:22.828Z,537.00
2023-04-26T03:20:22.898Z,535.00
2023-04-26T03:21:22.891Z,536.00
2023-04-26T03:22:22.930Z,536.00
2023-04-26T03:23:22.964Z,533.00
2023-04-26T03:24:23.046Z,536.00
2023-04-26T03:25:23.054Z,535.00
2023-04-26T03:26:23.133Z,537.00
2023-04-26T03:27:23.128Z,540.00
2023-04-26T03:28:23.206Z,543.00
2023-04-26T03:29:23.265Z,543.00
2023-04-26T03:30:23.317Z,544.00
2023-04-26T03:31:23.406Z,545.00
2023-04-26T03:32:23.378Z,543.00
2023-04-26T03:33:23.414Z,542.00
2023-04-26T03:34:23.457Z,542.00
2023-04-26T03:35:23.504Z,543.00
2023-04-26T03:36:23.504Z,545.00
2023-04-26T03:37:23.597Z,545.00
2023-04-26T03:38:23.621Z,542.00
2023-04-26T03:39:23.661Z,538.00
2023-04-26T03:40:23.705Z,537.00
2023-04-26T03:41:23.750Z,537.00
2023-04-26T03:42:23.795Z,537.00
2023-04-26T03:43:23.837Z,536.00
2023-04-26T03:44:23.892Z,533.00
2023-04-26T03:45:23.953Z,534.00
2023-04-26T03:46:23.989Z,537.00
2023-04-26T03:47:24.046Z,536.00
2023-04-26T03:48:24.055Z,536.00
2023-04-26T03:49:24.086Z,537.00
2023-04-26T03:50:24.150Z,538.00
2023-04-26T03:51:24.206Z,536.00
2023-04-26T03:52:24.242Z,537.00
2023-04-26T03:53:24.290Z,539.00
2023-04-26T03:54:24.289Z,536.00
2023-04-26T03:55:24.362Z,536.00
2023-04-26T03:56:24.422Z,536.00
2023-04-26T03:57:24.427Z,533.00
2023-04-26T03:58:24.468Z,533.00
2023-04-26T03:59:24.540Z,531.00
2023-04-26T04:00:24.608Z,532.00
2023-04-26T04:01:24.575Z,534.00
2023-04-26T04:02:24.796Z,536.00
2023-04-26T04:03:24.888Z,537.00
2023-04-26T04:04:24.822Z,537.00
2023-04-26T04:05:24.792Z,537.00
2023-04-26T04:06:24.816Z,537.00
2023-04-26T04:07:24.844Z,537.00
2023-04-26T04:08:24.911Z,536.00
2023-04-26T04:09:24.908Z,535.00
2023-04-26T04:10:24.963Z,537.00
2023-04-26T04:11:24.990Z,539.00
2023-04-26T04:12:25.036Z,543.00
2023-04-26T04:13:25.061Z,545.00
2023-04-26T04:14:25.171Z,545.00
2023-04-26T04:15:25.187Z,548.00
2023-04-26T04:16:25.381Z,549.00
2023-04-26T04:17:25.304Z,548.00
2023-04-26T04:18:25.277Z,547.00
2023-04-26T04:19:25.289Z,549.00
2023-04-26T04:20:25.325Z,549.00
2023-04-26T04:21:25.349Z,548.00
2023-04-26T04:22:25.418Z,549.00
2023-04-26T04:23:25.473Z,550.00
2023-04-26T04:24:25.564Z,552.00
2023-04-26T04:25:25.577Z,555.00
2023-04-26T04:26:25.595Z,556.00
2023-04-26T04:27:25.629Z,557.00
2023-04-26T04:28:25.688Z,555.00
2023-04-26T04:29:25.686Z,555.00
2023-04-26T04:30:25.781Z,556.00
2023-04-26T04:31:25.827Z,557.00
2023-04-26T04:32:25.841Z,556.00
2023-04-26T04:33:25.886Z,556.00
2023-04-26T04:34:25.911Z,554.00
2023-04-26T04:35:25.983Z,553.00
2023-04-26T04:36:26.009Z,554.00
2023-04-26T04:37:26.029Z,553.00
2023-04-26T04:38:26.082Z,555.00
2023-04-26T04:39:26.145Z,555.00
2023-04-26T04:40:26.200Z,556.00
2023-04-26T04:41:26.222Z,556.00
2023-04-26T04:42:26.275Z,556.00
2023-04-26T04:43:26.291Z,556.00
2023-04-26T04:44:26.366Z,555.00
2023-04-26T04:45:26.399Z,556.00
2023-04-26T04:46:26.472Z,557.00
2023-04-26T04:47:26.568Z,556.00
2023-04-26T04:48:26.601Z,556.00
2023-04-26T04:49:26.584Z,556.00
2023-04-26T04:50:26.663Z,554.00
2023-04-26T04:51:26.689Z,555.00
2023-04-26T04:52:26.784Z,554.00
2023-04-26T04:53:26.766Z,554.00
2023-04-26T04:54:26.813Z,553.00
2023-04-26T04:55:26.882Z,552.00
2023-04-26T04:56:26.924Z,552.00
2023-04-26T04:57:26.952Z,552.00
2023-04-26T04:58:27.048Z,553.00
2023-04-26T04:59:28.118Z,554.00
2023-04-26T05:00:27.113Z,554.00
2023-04-26T05:01:27.230Z,555.00
2023-04-26T05:02:27.362Z,555.00
2023-04-26T05:03:27.367Z,551.00
2023-04-26T05:04:27.533Z,547.00
2023-04-26T05:05:27.341Z,546.00
2023-04-26T05:06:27.420Z,546.00
2023-04-26T05:07:29.012Z,548.00
2023-04-26T05:08:27.480Z,550.00
2023-04-26T05:09:27.504Z,547.00
2023-04-26T05:10:27.554Z,546.00
2023-04-26T05:11:27.591Z,547.00
2023-04-26T05:12:27.633Z,550.00
2023-04-26T05:13:27.650Z,553.00
2023-04-26T05:14:27.772Z,553.00
2023-04-26T05:15:27.796Z,555.00
2023-04-26T05:16:27.839Z,556.00
2023-04-26T05:17:27.848Z,556.00
2023-04-26T05:18:27.990Z,556.00
2023-04-26T05:19:27.958Z,556.00
2023-04-26T05:20:27.971Z,556.00
2023-04-26T05:21:28.151Z,552.00
2023-04-26T05:22:28.077Z,550.00
2023-04-26T05:23:28.108Z,548.00
2023-04-26T05:24:28.129Z,549.00
2023-04-26T05:25:28.207Z,547.00
2023-04-26T05:26:28.257Z,550.00
2023-04-26T05:27:28.333Z,550.00
2023-04-26T05:28:28.329Z,548.00
2023-04-26T05:29:28.372Z,545.00
2023-04-26T05:30:28.420Z,542.00
2023-04-26T05:31:28.528Z,541.00
2023-04-26T05:32:28.528Z,541.00
2023-04-26T05:33:28.594Z,543.00
2023-04-26T05:34:28.612Z,545.00
2023-04-26T05:35:28.678Z,561.00
2023-04-26T05:36:29.929Z,575.00
2023-04-26T05:37:28.800Z,648.00
2023-04-26T05:38:29.410Z,692.00
2023-04-26T05:39:28.878Z,690.00
2023-04-26T05:40:28.888Z,703.00
2023-04-26T05:41:28.892Z,720.00
2023-04-26T05:42:29.420Z,801.00
2023-04-26T05:43:29.004Z,805.00
2023-04-26T05:44:29.057Z,796.00
2023-04-26T05:45:29.093Z,767.00
2023-04-26T05:46:29.219Z,725.00
2023-04-26T05:47:29.153Z,727.00
2023-04-26T05:48:29.145Z,727.00
2023-04-26T05:49:29.238Z,732.00
2023-04-26T05:50:29.220Z,741.00
2023-04-26T05:51:29.219Z,747.00
2023-04-26T05:52:29.408Z,758.00
2023-04-26T05:53:29.305Z,805.00
2023-04-26T05:54:29.270Z,820.00
2023-04-26T05:55:29.295Z,832.00
2023-04-26T05:56:29.319Z,843.00
2023-04-26T05:57:29.331Z,876.00
2023-04-26T05:58:29.434Z,892.00
2023-04-26T05:59:29.450Z,907.00
2023-04-26T06:00:29.571Z,919.00
2023-04-26T06:01:29.526Z,942.00
2023-04-26T06:02:29.782Z,946.00
2023-04-26T06:03:29.846Z,958.00
2023-04-26T06:04:30.059Z,967.00
2023-04-26T06:05:29.921Z,971.00
2023-04-26T06:06:29.743Z,978.00
2023-04-26T06:07:29.912Z,982.00
2023-04-26T06:08:29.824Z,989.00
2023-04-26T06:09:29.943Z,993.00
2023-04-26T06:10:29.866Z,988.00
2023-04-26T06:11:29.958Z,992.00
2023-04-26T06:12:29.902Z,1003.00
2023-04-26T06:13:30.436Z,1017.00
2023-04-26T06:14:30.932Z,1026.00
2023-04-26T06:15:29.969Z,1036.00
2023-04-26T06:16:30.076Z,1037.00
2023-04-26T06:17:30.905Z,1039.00
2023-04-26T06:18:30.411Z,1050.00
2023-04-26T06:19:29.941Z,1063.00
2023-04-26T06:20:29.959Z,1079.00
2023-04-26T06:21:30.005Z,1086.00
2023-04-26T06:22:29.975Z,1092.00
2023-04-26T06:23:29.974Z,1093.00
2023-04-26T06:24:30.008Z,1097.00
2023-04-26T06:25:30.056Z,1097.00
2023-04-26T06:26:30.068Z,1094.00
2023-04-26T06:27:30.163Z,1099.00
2023-04-26T06:28:30.186Z,1108.00
2023-04-26T06:29:30.392Z,1118.00
2023-04-26T06:30:30.314Z,1126.00
2023-04-26T06:31:30.419Z,1129.00
2023-04-26T06:32:30.418Z,1132.00
2023-04-26T06:33:31.001Z,1136.00
2023-04-26T06:34:30.583Z,1142.00
2023-04-26T06:35:30.628Z,1140.00
2023-04-26T06:36:30.930Z,1141.00
2023-04-26T06:37:30.731Z,1139.00
2023-04-26T06:38:30.764Z,1142.00
2023-04-26T06:39:30.921Z,1051.00
2023-04-26T06:40:30.778Z,974.00
2023-04-26T06:41:30.791Z,950.00
2023-04-26T06:42:31.058Z,953.00
2023-04-26T06:43:31.033Z,954.00
2023-04-26T06:44:30.873Z,970.00
2023-04-26T06:45:30.878Z,982.00
2023-04-26T06:46:31.016Z,998.00
2023-04-26T06:47:31.016Z,1012.00
2023-04-26T06:48:31.011Z,1023.00
2023-04-26T06:49:31.048Z,1034.00
2023-04-26T06:50:31.013Z,1046.00
2023-04-26T06:51:31.042Z,1053.00
2023-04-26T06:52:31.071Z,1064.00
2023-04-26T06:53:31.137Z,1070.00
2023-04-26T06:54:31.129Z,1077.00
2023-04-26T06:55:31.802Z,1072.00
2023-04-26T06:56:31.152Z,1066.00
2023-04-26T06:57:31.262Z,1008.00
2023-04-26T06:58:31.516Z,980.00
2023-04-26T06:59:31.152Z,965.00
2023-04-26T07:00:31.219Z,954.00
2023-04-26T07:01:31.187Z,927.00
2023-04-26T07:02:31.288Z,905.00
2023-04-26T07:03:31.576Z,912.00
2023-04-26T07:04:32.176Z,916.00
2023-04-26T07:05:31.496Z,913.00
2023-04-26T07:06:31.200Z,921.00
2023-04-26T07:07:31.280Z,922.00
2023-04-26T07:08:31.485Z,917.00
2023-04-26T07:09:31.317Z,910.00
2023-04-26T07:10:31.409Z,911.00
2023-04-26T07:11:31.433Z,927.00
2023-04-26T07:12:31.573Z,937.00
2023-04-26T07:13:31.751Z,937.00
2023-04-26T07:14:31.582Z,939.00
2023-04-26T07:15:31.682Z,950.00
2023-04-26T07:16:31.916Z,961.00
2023-04-26T07:17:31.829Z,967.00
2023-04-26T07:18:31.828Z,983.00
2023-04-26T07:19:31.924Z,995.00
2023-04-26T07:20:31.997Z,1001.00
2023-04-26T07:21:31.987Z,1010.00
2023-04-26T07:22:32.043Z,1026.00
2023-04-26T07:23:32.983Z,1042.00
2023-04-26T07:24:32.166Z,1048.00
2023-04-26T07:25:32.241Z,1052.00
2023-04-26T07:26:32.304Z,1051.00
2023-04-26T07:27:32.920Z,1056.00
2023-04-26T07:28:32.424Z,1063.00
2023-04-26T07:29:32.967Z,1071.00
2023-04-26T07:30:32.524Z,1081.00
2023-04-26T07:31:32.963Z,1078.00
2023-04-26T07:32:33.036Z,1077.00
2023-04-26T07:33:32.674Z,1060.00
2023-04-26T07:34:32.745Z,1021.00
2023-04-26T07:35:32.754Z,1022.00
2023-04-26T07:36:33.469Z,1012.00
2023-04-26T07:37:32.965Z,1014.00
2023-04-26T07:38:33.490Z,1057.00
2023-04-26T07:39:33.458Z,1057.00
2023-04-26T07:40:33.046Z,1046.00
2023-04-26T07:41:33.125Z,1042.00
2023-04-26T07:42:33.202Z,1042.00
2023-04-26T07:43:33.240Z,1049.00
2023-04-26T07:44:33.466Z,1049.00
2023-04-26T07:45:33.461Z,1049.00
2023-04-26T07:46:33.960Z,1051.00
2023-04-26T07:47:33.519Z,1050.00
2023-04-26T07:48:33.536Z,1046.00
2023-04-26T07:49:33.981Z,1042.00
2023-04-26T07:50:33.629Z,1044.00
2023-04-26T07:51:33.650Z,1047.00
2023-04-26T07:52:33.796Z,1049.00
2023-04-26T07:53:33.793Z,1057.00
2023-04-26T07:54:33.948Z,1075.00
2023-04-26T07:55:33.851Z,1099.00
2023-04-26T07:56:33.916Z,1110.00
2023-04-26T07:57:33.978Z,1115.00
2023-04-26T07:58:34.053Z,1116.00
2023-04-26T07:59:34.446Z,1122.00
2023-04-26T08:00:34.090Z,1126.00
2023-04-26T08:01:34.155Z,1133.00
2023-04-26T08:02:44.658Z,1139.00
2023-04-26T08:03:35.455Z,1137.00
2023-04-26T08:04:34.395Z,1141.00
2023-04-26T08:05:34.363Z,1147.00
2023-04-26T08:06:34.135Z,1156.00
2023-04-26T08:07:34.143Z,1163.00
2023-04-26T08:08:34.142Z,1178.00
2023-04-26T08:09:34.151Z,1172.00
2023-04-26T08:10:34.101Z,1177.00
2023-04-26T08:11:34.584Z,1180.00
2023-04-26T08:12:34.134Z,1169.00
2023-04-26T08:13:34.128Z,1160.00
2023-04-26T08:14:34.951Z,1162.00
2023-04-26T08:15:34.102Z,1166.00
2023-04-26T08:16:34.538Z,1165.00
2023-04-26T08:17:34.177Z,1169.00
2023-04-26T08:18:34.276Z,1177.00
2023-04-26T08:19:34.240Z,1184.00
2023-04-26T08:20:34.283Z,1190.00
2023-04-26T08:21:34.259Z,1186.00
2023-04-26T08:22:34.347Z,1191.00
2023-04-26T08:23:34.343Z,1196.00
2023-04-26T08:24:34.467Z,1201.00
2023-04-26T08:25:34.496Z,1201.00
2023-04-26T08:26:35.000Z,1200.00
2023-04-26T08:27:34.510Z,1147.00
2023-04-26T08:28:34.467Z,1056.00
2023-04-26T08:29:34.504Z,1045.00
2023-04-26T08:30:34.640Z,932.00
2023-04-26T08:31:34.632Z,909.00
2023-04-26T08:32:34.689Z,843.00
2023-04-26T08:33:34.936Z,846.00
2023-04-26T08:34:34.757Z,799.00
2023-04-26T08:35:34.824Z,776.00
2023-04-26T08:36:34.750Z,761.00
2023-04-26T08:37:34.753Z,714.00
2023-04-26T08:38:35.067Z,688.00
2023-04-26T08:39:34.877Z,669.00
2023-04-26T08:40:34.905Z,649.00
2023-04-26T08:41:34.888Z,628.00
2023-04-26T08:42:36.941Z,620.00
2023-04-26T08:43:35.052Z,616.00
2023-04-26T08:44:34.963Z,614.00
2023-04-26T08:45:34.959Z,612.00
2023-04-26T08:46:35.087Z,700.00
2023-04-26T08:47:34.948Z,703.00
2023-04-26T08:48:34.959Z,687.00
2023-04-26T08:49:35.096Z,694.00
2023-04-26T08:50:34.893Z,709.00
2023-04-26T08:51:34.911Z,718.00
2023-04-26T08:52:34.904Z,732.00
2023-04-26T08:53:34.933Z,743.00
2023-04-26T08:54:34.880Z,759.00
2023-04-26T08:55:34.854Z,781.00
2023-04-26T08:56:34.894Z,790.00
2023-04-26T08:57:34.849Z,805.00
2023-04-26T08:58:34.854Z,819.00
2023-04-26T08:59:34.836Z,838.00
2023-04-26T09:00:34.851Z,852.00
2023-04-26T09:01:34.947Z,869.00
2023-04-26T09:02:35.138Z,878.00
2023-04-26T09:03:35.117Z,884.00
2023-04-26T09:04:35.018Z,890.00
2023-04-26T09:05:34.795Z,900.00
2023-04-26T09:06:34.791Z,910.00
2023-04-26T09:07:34.815Z,923.00
2023-04-26T09:08:34.798Z,934.00
2023-04-26T09:09:34.963Z,944.00
2023-04-26T09:10:35.035Z,950.00
2023-04-26T09:11:34.996Z,953.00
2023-04-26T09:12:34.791Z,961.00
2023-04-26T09:13:34.757Z,971.00
2023-04-26T09:14:35.007Z,973.00
2023-04-26T09:15:34.833Z,983.00
2023-04-26T09:16:34.753Z,987.00
2023-04-26T09:17:34.768Z,995.00
2023-04-26T09:18:34.733Z,999.00
2023-04-26T09:19:34.717Z,1004.00
2023-04-26T09:20:35.017Z,1012.00
2023-04-26T09:21:34.720Z,1017.00
2023-04-26T09:22:34.700Z,1024.00
2023-04-26T09:23:34.665Z,1036.00
2023-04-26T09:24:34.727Z,1042.00
2023-04-26T09:25:34.673Z,1045.00
2023-04-26T09:26:34.757Z,1047.00
2023-04-26T09:27:34.638Z,1055.00
2023-04-26T09:28:34.668Z,1056.00
2023-04-26T09:29:35.002Z,1063.00
2023-04-26T09:30:34.653Z,1065.00
2023-04-26T09:31:34.723Z,1072.00
2023-04-26T09:32:34.680Z,1075.00
2023-04-26T09:33:34.627Z,1074.00
2023-04-26T09:34:34.637Z,1086.00
2023-04-26T09:35:34.622Z,1086.00
2023-04-26T09:36:34.642Z,1077.00
2023-04-26T09:37:34.683Z,1080.00
2023-04-26T09:38:34.722Z,1078.00
2023-04-26T09:39:34.777Z,1095.00
2023-04-26T09:40:34.848Z,1106.00
2023-04-26T09:41:34.876Z,987.00
2023-04-26T09:42:34.943Z,971.00
2023-04-26T09:43:35.922Z,958.00
2023-04-26T09:44:35.042Z,1042.00
2023-04-26T09:45:35.128Z,1058.00
2023-04-26T09:46:35.332Z,1055.00
2023-04-26T09:47:35.261Z,1049.00
2023-04-26T09:48:35.306Z,1047.00
2023-04-26T09:49:35.481Z,1047.00
2023-04-26T09:50:35.338Z,1047.00
2023-04-26T09:51:35.408Z,1042.00
2023-04-26T09:52:35.420Z,1041.00
2023-04-26T09:53:35.483Z,1042.00
2023-04-26T09:54:35.996Z,1041.00
2023-04-26T09:55:36.141Z,1044.00
2023-04-26T09:56:35.589Z,1048.00
2023-04-26T09:57:35.608Z,1049.00
2023-04-26T09:58:35.668Z,1052.00
2023-04-26T09:59:35.786Z,1060.00
2023-04-26T10:00:35.792Z,1062.00
2023-04-26T10:01:35.909Z,1074.00
2023-04-26T10:02:35.907Z,1074.00
2023-04-26T10:03:36.237Z,1077.00
2023-04-26T10:04:35.993Z,1086.00
2023-04-26T10:05:36.042Z,1091.00
2023-04-26T10:06:35.986Z,1095.00
2023-04-26T10:07:35.991Z,1098.00
2023-04-26T10:08:36.074Z,1099.00
2023-04-26T10:09:36.100Z,1104.00
2023-04-26T10:10:36.094Z,1111.00
2023-04-26T10:11:36.166Z,1113.00
2023-04-26T10:12:36.101Z,1118.00
2023-04-26T10:13:36.184Z,1117.00
2023-04-26T10:14:36.188Z,1125.00
2023-04-26T10:15:36.234Z,1127.00
2023-04-26T10:16:36.343Z,1133.00
2023-04-26T10:17:36.291Z,1136.00
2023-04-26T10:18:36.316Z,1139.00
2023-04-26T10:19:36.368Z,1140.00
2023-04-26T10:20:36.383Z,1139.00
2023-04-26T10:21:36.387Z,1142.00
2023-04-26T10:22:36.390Z,1141.00
2023-04-26T10:23:36.610Z,1141.00
2023-04-26T10:24:36.497Z,1138.00
2023-04-26T10:25:36.624Z,1134.00
2023-04-26T10:26:36.501Z,1144.00
2023-04-26T10:27:36.623Z,1157.00
2023-04-26T10:28:37.112Z,1085.00
2023-04-26T10:29:37.043Z,1071.00
2023-04-26T10:30:37.020Z,980.00
2023-04-26T10:31:37.052Z,916.00
2023-04-26T10:32:36.792Z,893.00
2023-04-26T10:33:38.500Z,903.00
2023-04-26T10:34:36.942Z,923.00
2023-04-26T10:35:37.068Z,930.00
2023-04-26T10:36:36.978Z,933.00
2023-04-26T10:37:37.509Z,934.00
2023-04-26T10:38:37.574Z,933.00
2023-04-26T10:39:37.520Z,936.00
2023-04-26T10:40:37.247Z,939.00
2023-04-26T10:41:38.047Z,947.00
2023-04-26T10:42:38.112Z,948.00
2023-04-26T10:43:37.554Z,950.00
2023-04-26T10:44:37.441Z,953.00
2023-04-26T10:45:37.486Z,953.00
2023-04-26T10:46:37.510Z,954.00
2023-04-26T10:47:37.712Z,956.00
2023-04-26T10:48:38.053Z,956.00
2023-04-26T10:49:37.613Z,960.00
2023-04-26T10:50:37.696Z,966.00
2023-04-26T10:51:37.690Z,973.00
2023-04-26T10:52:38.053Z,977.00
2023-04-26T10:53:37.712Z,985.00
2023-04-26T10:54:37.727Z,993.00
2023-04-26T10:55:37.799Z,990.00
2023-04-26T10:56:37.820Z,990.00
2023-04-26T10:57:38.049Z,990.00
2023-04-26T10:58:37.848Z,991.00
2023-04-26T10:59:51.416Z,989.00
2023-04-26T11:00:38.905Z,983.00
2023-04-26T11:01:37.934Z,975.00
2023-04-26T11:02:38.042Z,965.00
2023-04-26T11:03:38.313Z,960.00
2023-04-26T11:04:37.929Z,951.00
2023-04-26T11:05:38.024Z,948.00
2023-04-26T11:06:37.829Z,945.00
2023-04-26T11:07:37.934Z,947.00
2023-04-26T11:08:37.891Z,946.00
2023-04-26T11:09:37.844Z,957.00
2023-04-26T11:10:37.840Z,966.00
2023-04-26T11:11:37.793Z,966.00
2023-04-26T11:12:37.820Z,966.00
2023-04-26T11:13:37.834Z,968.00
2023-04-26T11:14:37.855Z,969.00
2023-04-26T11:15:37.861Z,972.00
2023-04-26T11:16:37.924Z,972.00
2023-04-26T11:17:37.855Z,984.00
2023-04-26T11:18:37.807Z,983.00
2023-04-26T11:19:38.025Z,972.00
2023-04-26T11:20:37.777Z,876.00
2023-04-26T11:21:37.771Z,820.00
2023-04-26T11:22:37.799Z,783.00
2023-04-26T11:23:37.813Z,748.00
2023-04-26T11:24:37.901Z,711.00
2023-04-26T11:25:37.921Z,686.00
2023-04-26T11:26:37.970Z,667.00
2023-04-26T11:27:37.946Z,642.00
2023-04-26T11:28:37.932Z,631.00
2023-04-26T11:29:38.002Z,622.00
2023-04-26T11:30:37.972Z,610.00
2023-04-26T11:31:38.045Z,599.00
2023-04-26T11:32:38.143Z,591.00
2023-04-26T11:33:38.177Z,584.00
2023-04-26T11:34:38.273Z,580.00
2023-04-26T11:35:38.277Z,575.00
2023-04-26T11:36:38.276Z,571.00
2023-04-26T11:37:38.258Z,565.00
2023-04-26T11:38:38.256Z,565.00
2023-04-26T11:39:38.315Z,560.00
2023-04-26T11:40:38.368Z,557.00
2023-04-26T11:41:38.380Z,557.00
2023-04-26T11:42:38.384Z,556.00
2023-04-26T11:43:38.486Z,553.00
2023-04-26T11:44:38.483Z,553.00
2023-04-26T11:45:38.572Z,554.00
2023-04-26T11:46:38.550Z,557.00
2023-04-26T11:47:38.553Z,560.00
2023-04-26T11:48:38.543Z,561.00
2023-04-26T11:49:38.565Z,560.00
2023-04-26T11:50:38.531Z,556.00
2023-04-26T11:51:38.553Z,555.00
2023-04-26T11:52:38.599Z,551.00
2023-04-26T11:53:38.698Z,553.00
2023-04-26T11:54:38.657Z,553.00
2023-04-26T11:55:38.633Z,555.00
2023-04-26T11:56:38.634Z,555.00
2023-04-26T11:57:38.646Z,552.00
2023-04-26T11:58:38.729Z,554.00
2023-04-26T11:59:38.719Z,556.00
2023-04-26T12:00:38.688Z,554.00
2023-04-26T12:01:38.815Z,553.00
2023-04-26T12:02:38.902Z,553.00
2023-04-26T12:03:39.169Z,557.00
2023-04-26T12:04:39.165Z,596.00
2023-04-26T12:05:39.049Z,659.00
2023-04-26T12:06:39.012Z,735.00
2023-04-26T12:07:39.188Z,744.00
2023-04-26T12:08:39.034Z,777.00
2023-04-26T12:09:39.067Z,767.00
2023-04-26T12:10:39.083Z,772.00
2023-04-26T12:11:39.197Z,781.00
2023-04-26T12:12:39.158Z,780.00
2023-04-26T12:13:39.170Z,781.00
2023-04-26T12:14:40.085Z,852.00
2023-04-26T12:15:39.185Z,842.00
2023-04-26T12:16:39.288Z,823.00
2023-04-26T12:17:39.346Z,825.00
2023-04-26T12:18:39.360Z,837.00
2023-04-26T12:19:39.460Z,859.00
2023-04-26T12:20:39.412Z,873.00
2023-04-26T12:21:39.464Z,886.00
2023-04-26T12:22:39.501Z,886.00